createdAt,value
2017-07-31T00:00:09.513Z,26.00
2017-07-31T00:02:37.766Z,25.70
2017-07-31T00:05:06.011Z,26.20
2017-07-31T00:07:34.246Z,25.80
2017-07-31T00:10:09.166Z,26.60
2017-07-31T00:12:37.386Z,26.80
2017-07-31T00:15:05.600Z,27.10
2017-07-31T00:17:33.874Z,27.20
2017-07-31T00:20:09.228Z,27.10
2017-07-31T00:22:37.489Z,27.00
2017-07-31T00:25:09.984Z,27.10
2017-07-31T00:27:38.259Z,27.10
2017-07-31T00:30:10.336Z,27.10
2017-07-31T00:32:38.609Z,27.20
2017-07-31T00:35:06.844Z,27.20
2017-07-31T00:37:35.066Z,27.10
2017-07-31T00:40:09.880Z,26.90
2017-07-31T00:42:38.106Z,26.90
2017-07-31T00:45:06.340Z,26.90
2017-07-31T00:47:34.605Z,26.70
2017-07-31T00:50:02.834Z,26.60
2017-07-31T00:52:31.061Z,26.60
2017-07-31T00:55:09.076Z,26.70
2017-07-31T00:57:37.306Z,26.40
2017-07-31T01:00:06.277Z,25.60
2017-07-31T01:02:34.533Z,25.60
2017-07-31T01:05:02.751Z,25.20
2017-07-31T01:07:31.744Z,25.80
2017-07-31T01:10:08.798Z,25.80
2017-07-31T01:12:37.019Z,25.80
2017-07-31T01:15:05.235Z,25.90
2017-07-31T01:17:33.498Z,25.80
2017-07-31T01:20:08.567Z,25.20
2017-07-31T01:22:36.824Z,24.80
2017-07-31T01:25:11.165Z,25.20
2017-07-31T01:27:39.429Z,25.60
2017-07-31T01:30:07.648Z,26.00
2017-07-31T01:32:35.874Z,25.90
2017-07-31T01:35:10.220Z,26.00
2017-07-31T01:38:08.956Z,26.00
2017-07-31T01:40:37.226Z,26.00
2017-07-31T01:43:05.437Z,26.10
2017-07-31T01:45:33.668Z,25.50
2017-07-31T01:48:01.935Z,25.10
2017-07-31T01:50:30.163Z,25.00
2017-07-31T01:52:58.382Z,25.00
2017-07-31T01:55:26.629Z,25.00
2017-07-31T01:57:55.609Z,24.10
2017-07-31T02:00:23.821Z,24.10
2017-07-31T02:03:09.210Z,24.10
2017-07-31T02:05:37.428Z,24.10
2017-07-31T02:08:09.192Z,23.90
2017-07-31T02:10:37.598Z,23.80
2017-07-31T02:13:05.814Z,24.00
2017-07-31T02:15:34.051Z,24.50
2017-07-31T02:18:02.315Z,24.80
2017-07-31T02:20:31.299Z,25.00
2017-07-31T02:23:00.285Z,24.90
2017-07-31T02:25:28.543Z,24.90
2017-07-31T02:27:56.767Z,24.50
2017-07-31T02:30:24.985Z,24.00
2017-07-31T02:33:09.668Z,23.90
2017-07-31T02:35:37.896Z,24.00
2017-07-31T02:38:06.126Z,23.80
2017-07-31T02:40:35.143Z,23.70
2017-07-31T02:43:03.375Z,23.70
2017-07-31T02:45:31.594Z,23.60
2017-07-31T02:47:59.853Z,23.50
2017-07-31T02:50:28.852Z,23.60
2017-07-31T02:52:57.073Z,23.50
2017-07-31T02:55:25.321Z,24.20
2017-07-31T02:58:08.306Z,24.60
2017-07-31T03:03:37.399Z,24.50
2017-07-31T03:06:05.617Z,24.60
2017-07-31T03:08:33.834Z,24.60
2017-07-31T03:11:02.093Z,24.70
2017-07-31T03:13:30.296Z,24.70
2017-07-31T03:15:58.505Z,24.50
2017-07-31T03:18:27.532Z,24.30
2017-07-31T03:20:55.756Z,24.30
2017-07-31T03:23:24.727Z,24.50
2017-07-31T03:26:09.921Z,24.40
2017-07-31T03:29:07.719Z,24.30
2017-07-31T03:31:36.003Z,24.40
2017-07-31T03:34:04.226Z,24.50
2017-07-31T03:36:32.443Z,24.50
2017-07-31T03:39:00.706Z,24.30
2017-07-31T03:41:28.938Z,23.70
2017-07-31T03:43:57.154Z,23.30
2017-07-31T03:46:26.175Z,23.20
2017-07-31T03:48:54.390Z,23.20
2017-07-31T03:51:22.604Z,23.80
2017-07-31T03:53:50.895Z,24.20
2017-07-31T03:56:19.111Z,24.20
2017-07-31T03:58:47.321Z,24.10
2017-07-31T04:01:15.570Z,23.90
2017-07-31T04:03:43.791Z,24.00
2017-07-31T04:06:12.008Z,23.60
2017-07-31T04:09:08.220Z,23.70
2017-07-31T04:11:36.440Z,23.90
2017-07-31T04:14:05.414Z,23.90
2017-07-31T04:16:33.665Z,23.90
2017-07-31T04:19:01.896Z,24.00
2017-07-31T04:21:30.107Z,24.20
2017-07-31T04:23:58.383Z,23.90
2017-07-31T04:26:26.602Z,23.80
2017-07-31T04:28:54.828Z,24.00
2017-07-31T04:31:23.087Z,24.00
2017-07-31T04:33:51.309Z,23.90
2017-07-31T04:36:19.532Z,23.60
2017-07-31T04:39:08.216Z,23.10
2017-07-31T04:41:36.433Z,22.90
2017-07-31T04:44:05.418Z,23.20
2017-07-31T04:46:34.449Z,23.20
2017-07-31T04:49:02.666Z,23.20
2017-07-31T04:51:30.885Z,23.30
2017-07-31T04:53:59.140Z,23.50
2017-07-31T04:56:29.028Z,23.10
2017-07-31T04:58:57.253Z,23.10
2017-07-31T05:01:25.502Z,23.10
2017-07-31T05:04:08.569Z,23.40
2017-07-31T05:06:37.050Z,23.40
2017-07-31T05:09:05.286Z,23.20
2017-07-31T05:11:34.330Z,23.40
2017-07-31T05:14:02.604Z,23.40
2017-07-31T05:16:30.828Z,23.50
2017-07-31T05:19:00.029Z,23.70
2017-07-31T05:21:29.040Z,23.80
2017-07-31T05:23:57.259Z,23.80
2017-07-31T05:26:25.461Z,23.80
2017-07-31T05:28:53.727Z,23.80
2017-07-31T05:34:21.933Z,23.80
2017-07-31T05:36:50.944Z,23.70
2017-07-31T05:39:19.171Z,23.70
2017-07-31T05:41:47.450Z,23.80
2017-07-31T05:44:15.668Z,23.90
2017-07-31T05:46:43.894Z,23.90
2017-07-31T05:49:12.143Z,24.00
2017-07-31T05:54:18.837Z,24.10
2017-07-31T05:56:47.071Z,24.10
2017-07-31T05:59:16.062Z,24.10
2017-07-31T06:01:45.093Z,24.10
2017-07-31T06:04:13.313Z,24.10
2017-07-31T06:06:41.533Z,24.10
2017-07-31T06:09:09.799Z,24.10
2017-07-31T06:11:38.034Z,24.10
2017-07-31T06:14:09.651Z,24.10
2017-07-31T06:16:37.875Z,24.20
2017-07-31T06:19:06.867Z,24.30
2017-07-31T06:21:35.906Z,24.30
2017-07-31T06:24:04.125Z,24.30
2017-07-31T06:26:32.367Z,24.40
2017-07-31T06:29:10.655Z,24.40
2017-07-31T06:31:38.885Z,24.50
2017-07-31T06:34:07.105Z,24.50
2017-07-31T06:36:35.353Z,24.50
2017-07-31T06:39:04.339Z,24.70
2017-07-31T06:41:33.345Z,24.70
2017-07-31T06:44:09.393Z,24.70
2017-07-31T06:46:38.377Z,24.90
2017-07-31T06:49:07.374Z,25.00
2017-07-31T06:51:36.410Z,25.00
2017-07-31T06:54:04.634Z,25.00
2017-07-31T06:59:34.325Z,25.10
2017-07-31T07:02:09.564Z,25.30
2017-07-31T07:04:37.833Z,25.30
2017-07-31T07:07:06.062Z,25.40
2017-07-31T07:09:35.055Z,25.60
2017-07-31T07:12:03.331Z,25.50
2017-07-31T07:14:32.315Z,25.70
2017-07-31T07:17:01.317Z,25.50
2017-07-31T07:19:29.596Z,25.50
2017-07-31T07:21:58.580Z,25.50
2017-07-31T07:24:27.561Z,25.50
2017-07-31T07:27:08.805Z,25.50
2017-07-31T07:32:15.584Z,25.80
2017-07-31T07:34:43.804Z,25.80
2017-07-31T07:37:12.052Z,26.00
2017-07-31T07:39:40.329Z,26.00
2017-07-31T07:42:08.553Z,26.40
2017-07-31T07:44:36.785Z,26.40
2017-07-31T07:47:05.070Z,26.30
2017-07-31T07:49:33.310Z,26.70
2017-07-31T07:52:01.543Z,26.70
2017-07-31T07:54:30.583Z,27.50
2017-07-31T07:56:58.804Z,27.40
2017-07-31T07:59:27.025Z,27.00
2017-07-31T08:01:55.297Z,26.90
2017-07-31T08:04:23.540Z,27.00
2017-07-31T08:07:09.543Z,27.80
2017-07-31T08:09:37.775Z,27.80
2017-07-31T08:12:09.410Z,27.80
2017-07-31T08:14:37.674Z,27.90
2017-07-31T08:17:05.913Z,28.40
2017-07-31T08:19:34.927Z,28.30
2017-07-31T08:22:09.247Z,28.30
2017-07-31T08:24:37.479Z,28.40
2017-07-31T08:27:05.725Z,28.30
2017-07-31T08:29:33.999Z,28.00
2017-07-31T08:32:02.258Z,28.50
2017-07-31T08:34:30.516Z,28.40
2017-07-31T08:36:58.845Z,28.60
2017-07-31T08:42:10.967Z,28.30
2017-07-31T08:44:39.187Z,28.50
2017-07-31T08:47:07.423Z,28.20
2017-07-31T08:52:36.232Z,28.70
2017-07-31T08:55:04.469Z,29.30
2017-07-31T08:57:33.785Z,29.30
2017-07-31T09:00:02.877Z,28.60
2017-07-31T09:05:32.802Z,28.90
2017-07-31T09:08:09.427Z,28.90
2017-07-31T09:10:38.470Z,28.90
2017-07-31T09:13:06.716Z,28.90
2017-07-31T09:15:34.955Z,29.20
2017-07-31T09:18:08.908Z,29.60
2017-07-31T09:20:37.139Z,29.90
2017-07-31T09:23:06.125Z,30.10
2017-07-31T09:25:34.424Z,30.10
2017-07-31T09:28:02.667Z,30.10
2017-07-31T09:33:31.893Z,30.50
2017-07-31T09:36:00.137Z,29.70
2017-07-31T09:38:28.370Z,29.70
2017-07-31T09:40:56.652Z,30.00
2017-07-31T09:43:24.906Z,29.80
2017-07-31T09:45:53.905Z,29.80
2017-07-31T09:48:22.954Z,29.80
2017-07-31T09:50:51.200Z,29.80
2017-07-31T09:53:19.450Z,29.90
2017-07-31T09:55:48.487Z,30.90
2017-07-31T09:58:16.735Z,30.90
2017-07-31T10:00:44.966Z,30.30
2017-07-31T10:03:13.247Z,30.40
2017-07-31T10:05:41.502Z,30.30
2017-07-31T10:08:09.729Z,30.70
2017-07-31T10:10:38.025Z,31.20
2017-07-31T10:13:06.283Z,31.30
2017-07-31T10:15:34.624Z,31.30
2017-07-31T10:18:09.028Z,31.40
2017-07-31T10:20:37.485Z,31.60
2017-07-31T10:23:05.721Z,31.70
2017-07-31T10:25:33.997Z,31.70
2017-07-31T10:28:02.245Z,32.00
2017-07-31T10:30:30.491Z,31.70
2017-07-31T10:32:58.804Z,32.00
2017-07-31T10:35:27.814Z,31.40
2017-07-31T10:37:56.814Z,31.30
2017-07-31T10:40:25.086Z,31.20
2017-07-31T10:42:53.352Z,32.00
2017-07-31T10:45:22.352Z,32.00
2017-07-31T10:47:50.853Z,32.00
2017-07-31T10:50:19.087Z,32.30
2017-07-31T10:52:47.351Z,31.80
2017-07-31T10:55:15.613Z,32.00
2017-07-31T10:57:43.859Z,32.30
2017-07-31T11:00:12.100Z,32.30
2017-07-31T11:02:41.140Z,32.30
2017-07-31T11:05:09.367Z,32.20
2017-07-31T11:07:37.627Z,32.70
2017-07-31T11:10:09.585Z,32.70
2017-07-31T11:12:37.839Z,32.90
2017-07-31T11:15:06.078Z,32.80
2017-07-31T11:17:34.385Z,32.60
2017-07-31T11:20:02.643Z,32.70
2017-07-31T11:28:09.388Z,33.00
2017-07-31T11:30:37.641Z,33.00
2017-07-31T11:33:05.880Z,32.70
2017-07-31T11:41:36.187Z,33.70
2017-07-31T11:44:10.748Z,33.70
2017-07-31T11:46:39.804Z,33.20
2017-07-31T11:49:08.051Z,33.20
2017-07-31T11:54:36.130Z,33.50
2017-07-31T11:57:04.368Z,33.70
2017-07-31T11:59:32.629Z,33.60
2017-07-31T12:02:00.886Z,34.10
2017-07-31T12:04:29.136Z,33.80
2017-07-31T12:07:10.465Z,33.30
2017-07-31T12:09:38.730Z,33.10
2017-07-31T12:12:06.990Z,33.10
2017-07-31T12:14:35.256Z,33.50
2017-07-31T12:17:03.483Z,33.50
2017-07-31T12:22:32.393Z,33.00
2017-07-31T12:25:00.637Z,33.20
2017-07-31T12:27:28.882Z,33.50
2017-07-31T12:29:57.164Z,32.90
2017-07-31T12:32:25.401Z,33.40
2017-07-31T12:34:54.390Z,33.50
2017-07-31T12:37:23.423Z,33.90
2017-07-31T12:39:51.651Z,33.90
2017-07-31T12:42:19.930Z,33.80
2017-07-31T12:44:48.990Z,33.70
2017-07-31T12:47:17.223Z,33.70
2017-07-31T12:49:45.461Z,33.50
2017-07-31T12:52:13.727Z,33.40
2017-07-31T12:54:41.975Z,33.80
2017-07-31T12:57:10.221Z,33.80
2017-07-31T12:59:38.493Z,33.30
2017-07-31T13:02:06.700Z,34.00
2017-07-31T13:04:34.945Z,34.40
2017-07-31T13:07:03.219Z,34.50
2017-07-31T13:09:31.475Z,34.30
2017-07-31T13:12:00.498Z,35.00
2017-07-31T13:14:28.804Z,35.00
2017-07-31T13:17:10.231Z,35.30
2017-07-31T13:19:39.291Z,35.10
2017-07-31T13:22:07.523Z,35.10
2017-07-31T13:24:35.771Z,34.80
2017-07-31T13:27:04.822Z,35.30
2017-07-31T13:29:33.068Z,35.20
2017-07-31T13:32:09.650Z,35.70
2017-07-31T13:34:37.902Z,35.90
2017-07-31T13:37:06.137Z,36.20
2017-07-31T13:39:34.394Z,36.50
2017-07-31T13:42:02.650Z,36.80
2017-07-31T13:44:30.877Z,36.80
2017-07-31T13:46:59.996Z,37.00
2017-07-31T13:49:28.983Z,37.00
2017-07-31T13:51:57.243Z,37.00
2017-07-31T13:54:25.521Z,37.30
2017-07-31T13:56:53.740Z,38.10
2017-07-31T13:59:21.979Z,38.70
2017-07-31T14:02:09.209Z,39.00
2017-07-31T14:04:37.451Z,39.10
2017-07-31T14:07:05.680Z,38.60
2017-07-31T14:09:33.924Z,38.30
2017-07-31T14:12:09.054Z,37.90
2017-07-31T14:14:37.350Z,37.90
2017-07-31T14:17:05.592Z,38.00
2017-07-31T14:19:33.826Z,38.50
2017-07-31T14:22:02.121Z,38.60
2017-07-31T14:24:30.384Z,38.00
2017-07-31T14:27:09.055Z,37.50
2017-07-31T14:29:37.279Z,37.20
2017-07-31T14:32:05.522Z,37.40
2017-07-31T14:34:33.787Z,38.60
2017-07-31T14:37:02.800Z,38.50
2017-07-31T14:42:31.771Z,40.60
2017-07-31T14:45:00.002Z,40.90
2017-07-31T14:47:28.256Z,40.30
2017-07-31T14:49:57.311Z,40.30
2017-07-31T14:52:25.558Z,40.20
2017-07-31T14:54:53.801Z,38.90
2017-07-31T14:57:22.094Z,38.60
2017-07-31T14:59:50.353Z,38.70
2017-07-31T15:02:18.585Z,38.50
2017-07-31T15:04:46.861Z,38.40
2017-07-31T15:07:15.110Z,38.40
2017-07-31T15:10:09.581Z,38.30
2017-07-31T15:12:37.822Z,38.20
2017-07-31T15:15:06.851Z,39.30
2017-07-31T15:17:35.150Z,39.30
2017-07-31T15:20:03.413Z,41.30
2017-07-31T15:22:31.653Z,41.20
2017-07-31T15:25:00.686Z,40.50
2017-07-31T15:27:28.923Z,40.40
2017-07-31T15:29:57.936Z,39.40
2017-07-31T15:32:26.227Z,39.30
2017-07-31T15:34:54.464Z,39.10
2017-07-31T15:37:22.700Z,39.20
2017-07-31T15:39:50.957Z,39.30
2017-07-31T15:42:19.186Z,41.40
2017-07-31T15:44:47.416Z,40.20
2017-07-31T15:47:15.724Z,39.80
2017-07-31T15:49:43.958Z,40.60
2017-07-31T15:52:12.916Z,40.10
2017-07-31T15:55:08.807Z,41.40
2017-07-31T15:57:37.064Z,42.80
2017-07-31T16:00:05.313Z,43.70
2017-07-31T16:02:33.609Z,43.80
2017-07-31T16:05:09.053Z,43.50
2017-07-31T16:07:37.317Z,43.30
2017-07-31T16:10:05.555Z,42.70
2017-07-31T16:12:33.924Z,41.10
2017-07-31T16:15:02.990Z,40.30
2017-07-31T16:17:31.245Z,40.30
2017-07-31T16:19:59.503Z,40.20
2017-07-31T16:22:27.795Z,40.60
2017-07-31T16:24:56.045Z,40.80
2017-07-31T16:27:24.287Z,42.40
2017-07-31T16:29:52.557Z,42.80
2017-07-31T16:35:10.288Z,40.90
2017-07-31T16:37:38.531Z,40.30
2017-07-31T16:40:24.620Z,40.60
2017-07-31T16:43:10.611Z,40.70
2017-07-31T16:45:40.819Z,40.70
2017-07-31T16:48:26.783Z,40.80
2017-07-31T16:51:09.417Z,41.00
2017-07-31T16:53:37.660Z,41.90
2017-07-31T16:56:05.904Z,42.40
2017-07-31T16:58:34.189Z,42.40
2017-07-31T17:04:02.562Z,42.00
2017-07-31T17:06:30.800Z,40.70
2017-07-31T17:08:59.817Z,40.50
2017-07-31T17:11:28.108Z,40.50
2017-07-31T17:13:56.350Z,39.80
2017-07-31T17:16:24.574Z,39.40
2017-07-31T17:19:09.197Z,38.60
2017-07-31T17:21:37.444Z,38.70
2017-07-31T17:24:05.684Z,39.30
2017-07-31T17:26:33.961Z,39.80
2017-07-31T17:29:09.227Z,40.30
2017-07-31T17:31:39.043Z,40.70
2017-07-31T17:34:07.446Z,40.50
2017-07-31T17:36:35.668Z,40.30
2017-07-31T17:39:04.568Z,40.20
2017-07-31T17:41:32.810Z,40.30
2017-07-31T17:44:01.038Z,40.40
2017-07-31T17:49:29.512Z,37.70
2017-07-31T17:51:57.751Z,37.90
2017-07-31T17:54:26.019Z,38.20
2017-07-31T17:56:54.290Z,39.00
2017-07-31T17:59:22.544Z,38.90
2017-07-31T18:01:51.582Z,38.00
2017-07-31T18:04:19.876Z,37.90
2017-07-31T18:06:48.134Z,38.50
2017-07-31T18:09:16.393Z,38.80
2017-07-31T18:11:44.724Z,38.90
2017-07-31T18:14:12.948Z,38.90
2017-07-31T18:16:41.181Z,38.90
2017-07-31T18:19:09.467Z,38.80
2017-07-31T18:21:37.714Z,38.60
2017-07-31T18:24:05.967Z,36.60
2017-07-31T18:26:34.269Z,36.60
2017-07-31T18:29:09.617Z,37.00
2017-07-31T18:31:37.898Z,37.60
2017-07-31T18:34:07.073Z,37.80
2017-07-31T18:36:35.295Z,37.80
2017-07-31T18:39:10.591Z,37.00
2017-07-31T18:41:38.836Z,37.00
2017-07-31T18:44:07.070Z,36.50
2017-07-31T18:46:36.123Z,36.10
2017-07-31T18:49:04.370Z,36.00
2017-07-31T18:51:32.619Z,36.60
2017-07-31T18:54:09.790Z,35.60
2017-07-31T18:56:38.033Z,35.60
2017-07-31T18:59:06.314Z,34.90
2017-07-31T19:01:34.606Z,35.80
2017-07-31T19:04:02.834Z,36.00
2017-07-31T19:09:32.059Z,36.00
2017-07-31T19:12:00.314Z,36.00
2017-07-31T19:14:28.556Z,35.80
2017-07-31T19:16:56.842Z,34.90
2017-07-31T19:19:25.874Z,34.60
2017-07-31T19:22:09.323Z,34.50
2017-07-31T19:24:37.608Z,34.90
2017-07-31T19:27:05.836Z,35.20
2017-07-31T19:29:34.111Z,35.40
2017-07-31T19:32:02.350Z,35.20
2017-07-31T19:37:30.709Z,34.00
2017-07-31T19:39:58.960Z,33.90
2017-07-31T19:42:27.207Z,34.30
2017-07-31T19:44:55.505Z,34.20
2017-07-31T19:47:24.489Z,34.30
2017-07-31T19:50:10.136Z,34.40
2017-07-31T19:52:38.348Z,34.40
2017-07-31T19:55:07.352Z,33.10
2017-07-31T19:57:36.389Z,32.30
2017-07-31T20:00:04.626Z,32.20
2017-07-31T20:02:32.865Z,32.00
2017-07-31T20:05:09.511Z,31.80
2017-07-31T20:07:37.750Z,31.80
2017-07-31T20:10:05.988Z,32.10
2017-07-31T20:12:34.269Z,31.50
2017-07-31T20:15:02.493Z,31.20
2017-07-31T20:17:30.757Z,31.10
2017-07-31T20:20:09.819Z,31.10
2017-07-31T20:22:38.052Z,30.90
2017-07-31T20:25:06.292Z,30.30
2017-07-31T20:27:34.605Z,30.30
2017-07-31T20:30:02.860Z,30.80
2017-07-31T20:32:31.864Z,30.70
2017-07-31T20:35:00.162Z,30.70
2017-07-31T20:37:28.409Z,30.40
2017-07-31T20:39:56.657Z,30.30
2017-07-31T20:42:25.054Z,30.50
2017-07-31T20:44:54.049Z,29.60
2017-07-31T20:47:22.320Z,29.60
2017-07-31T20:50:10.463Z,29.40
2017-07-31T20:52:39.458Z,29.50
2017-07-31T20:55:08.463Z,29.30
2017-07-31T20:57:36.721Z,29.30
2017-07-31T21:03:06.097Z,28.80
2017-07-31T21:05:34.323Z,28.80
2017-07-31T21:08:03.339Z,29.40
2017-07-31T21:10:31.603Z,29.30
2017-07-31T21:16:01.594Z,29.30
2017-07-31T21:18:29.832Z,29.20
2017-07-31T21:21:10.515Z,29.90
2017-07-31T21:23:38.758Z,29.80
2017-07-31T21:26:07.001Z,29.20
2017-07-31T21:28:35.289Z,28.90
2017-07-31T21:31:09.596Z,28.80
2017-07-31T21:33:38.633Z,28.50
2017-07-31T21:36:10.282Z,28.50
2017-07-31T21:38:38.519Z,28.20
2017-07-31T21:41:10.657Z,28.20
2017-07-31T21:46:12.341Z,28.20
2017-07-31T21:48:40.578Z,28.40
2017-07-31T21:51:09.615Z,28.30
2017-07-31T21:53:37.881Z,29.00
2017-07-31T21:56:09.873Z,28.70
2017-07-31T21:58:38.159Z,28.20
2017-07-31T22:01:10.277Z,27.90
2017-07-31T22:03:38.600Z,27.80
2017-07-31T22:06:10.577Z,27.90
2017-07-31T22:08:38.859Z,28.00
2017-07-31T22:11:10.852Z,27.80
2017-07-31T22:14:09.333Z,27.50
2017-07-31T22:16:43.240Z,28.00
2017-07-31T22:19:11.515Z,27.90
2017-07-31T22:21:45.281Z,27.90
2017-07-31T22:24:14.346Z,28.40
2017-07-31T22:26:42.594Z,28.40
2017-07-31T22:29:10.821Z,28.60
2017-07-31T22:31:39.833Z,28.50
2017-07-31T22:34:08.061Z,28.50
2017-07-31T22:36:36.272Z,28.70
2017-07-31T22:39:10.946Z,28.70
2017-07-31T22:41:39.186Z,28.70
2017-07-31T22:44:07.410Z,28.80
2017-07-31T22:55:21.370Z,28.50
2017-07-31T22:57:49.617Z,28.40
2017-07-31T23:00:17.844Z,28.30
2017-07-31T23:02:46.133Z,27.10
2017-07-31T23:05:14.387Z,27.20
2017-07-31T23:08:09.017Z,27.20
2017-07-31T23:10:38.028Z,27.00
2017-07-31T23:13:12.049Z,27.00
2017-07-31T23:15:40.277Z,27.10
2017-07-31T23:18:08.508Z,26.90
2017-07-31T23:20:36.774Z,27.10
2017-07-31T23:23:05.005Z,27.40
2017-07-31T23:25:33.267Z,27.70
2017-07-31T23:28:01.533Z,27.80
2017-07-31T23:30:29.749Z,27.80
2017-07-31T23:33:10.453Z,27.80
2017-07-31T23:35:38.676Z,27.70
2017-07-31T23:38:06.906Z,27.60
2017-07-31T23:40:35.152Z,27.70
2017-07-31T23:43:04.251Z,27.60
2017-07-31T23:45:32.465Z,27.60
2017-07-31T23:48:11.060Z,27.40
2017-07-31T23:50:39.314Z,27.40
2017-07-31T23:53:07.541Z,27.20
2017-07-31T23:55:35.796Z,26.60
2017-07-31T23:58:04.017Z,26.10
